sensor_id;sensor_type;location;lat;lon;timestamp;P1;durP1;ratioP1;P2;durP2;ratioP2
36001;SDS011;22070;50.922;5.430;2022-12-07T00:02:04;24.75;;;12.45;;
36001;SDS011;22070;50.922;5.430;2022-12-07T00:04:30;23.92;;;13.48;;
36001;SDS011;22070;50.922;5.430;2022-12-07T00:06:55;23.00;;;13.50;;
36001;SDS011;22070;50.922;5.430;2022-12-07T00:09:21;25.88;;;13.82;;
36001;SDS011;22070;50.922;5.430;2022-12-07T00:11:50;28.48;;;13.50;;
36001;SDS011;22070;50.922;5.430;2022-12-07T00:14:17;21.75;;;13.40;;
36001;SDS011;22070;50.922;5.430;2022-12-07T00:19:10;23.20;;;12.77;;
36001;SDS011;22070;50.922;5.430;2022-12-07T00:21:37;27.52;;;13.55;;
36001;SDS011;22070;50.922;5.430;2022-12-07T00:24:03;16.25;;;9.80;;
36001;SDS011;22070;50.922;5.430;2022-12-07T00:26:31;25.83;;;14.18;;
36001;SDS011;22070;50.922;5.430;2022-12-07T00:29:02;27.60;;;14.18;;
36001;SDS011;22070;50.922;5.430;2022-12-07T00:31:31;24.50;;;14.10;;
36001;SDS011;22070;50.922;5.430;2022-12-07T00:34:00;29.05;;;14.70;;
36001;SDS011;22070;50.922;5.430;2022-12-07T00:36:26;24.60;;;14.45;;
36001;SDS011;22070;50.922;5.430;2022-12-07T00:38:52;22.42;;;13.90;;
36001;SDS011;22070;50.922;5.430;2022-12-07T00:41:20;25.90;;;14.75;;
36001;SDS011;22070;50.922;5.430;2022-12-07T00:43:48;27.77;;;14.30;;
36001;SDS011;22070;50.922;5.430;2022-12-07T00:46:15;21.70;;;13.32;;
36001;SDS011;22070;50.922;5.430;2022-12-07T00:48:41;28.73;;;14.05;;
36001;SDS011;22070;50.922;5.430;2022-12-07T00:51:08;25.13;;;14.00;;
36001;SDS011;22070;50.922;5.430;2022-12-07T00:53:36;26.33;;;14.23;;
36001;SDS011;22070;50.922;5.430;2022-12-07T00:56:09;28.48;;;15.45;;
36001;SDS011;22070;50.922;5.430;2022-12-07T00:58:43;26.02;;;15.15;;
36001;SDS011;22070;50.922;5.430;2022-12-07T01:01:09;32.65;;;14.40;;
36001;SDS011;22070;50.922;5.430;2022-12-07T01:03:36;26.00;;;14.55;;
36001;SDS011;22070;50.922;5.430;2022-12-07T01:06:02;24.38;;;14.18;;
36001;SDS011;22070;50.922;5.430;2022-12-07T01:08:30;34.55;;;15.13;;
36001;SDS011;22070;50.922;5.430;2022-12-07T01:13:26;27.35;;;14.85;;
36001;SDS011;22070;50.922;5.430;2022-12-07T01:15:55;27.48;;;15.00;;
36001;SDS011;22070;50.922;5.430;2022-12-07T01:18:22;27.20;;;15.43;;
36001;SDS011;22070;50.922;5.430;2022-12-07T01:20:57;33.30;;;15.30;;
36001;SDS011;22070;50.922;5.430;2022-12-07T01:23:26;22.73;;;13.80;;
36001;SDS011;22070;50.922;5.430;2022-12-07T01:25:58;28.30;;;14.63;;
36001;SDS011;22070;50.922;5.430;2022-12-07T01:28:27;30.63;;;15.43;;
36001;SDS011;22070;50.922;5.430;2022-12-07T01:30:56;26.07;;;14.27;;
36001;SDS011;22070;50.922;5.430;2022-12-07T01:33:22;26.63;;;14.60;;
36001;SDS011;22070;50.922;5.430;2022-12-07T01:35:48;23.30;;;14.85;;
36001;SDS011;22070;50.922;5.430;2022-12-07T01:38:13;27.00;;;15.70;;
36001;SDS011;22070;50.922;5.430;2022-12-07T01:40:39;26.83;;;14.48;;
36001;SDS011;22070;50.922;5.430;2022-12-07T01:43:13;26.38;;;14.57;;
36001;SDS011;22070;50.922;5.430;2022-12-07T01:45:42;27.67;;;15.38;;
36001;SDS011;22070;50.922;5.430;2022-12-07T01:48:09;30.60;;;14.88;;
36001;SDS011;22070;50.922;5.430;2022-12-07T01:50:36;28.70;;;14.43;;
36001;SDS011;22070;50.922;5.430;2022-12-07T01:53:04;26.05;;;14.20;;
36001;SDS011;22070;50.922;5.430;2022-12-07T01:55:34;27.98;;;14.27;;
36001;SDS011;22070;50.922;5.430;2022-12-07T01:58:03;29.83;;;14.95;;
36001;SDS011;22070;50.922;5.430;2022-12-07T02:00:29;29.27;;;14.60;;
36001;SDS011;22070;50.922;5.430;2022-12-07T02:02:56;28.35;;;14.85;;
36001;SDS011;22070;50.922;5.430;2022-12-07T02:05:51;27.38;;;13.63;;
36001;SDS011;22070;50.922;5.430;2022-12-07T02:08:19;28.25;;;14.43;;
36001;SDS011;22070;50.922;5.430;2022-12-07T02:10:45;24.67;;;13.82;;
36001;SDS011;22070;50.922;5.430;2022-12-07T02:13:30;25.40;;;14.00;;
36001;SDS011;22070;50.922;5.430;2022-12-07T02:21:34;26.00;;;14.75;;
36001;SDS011;22070;50.922;5.430;2022-12-07T02:24:29;24.90;;;14.90;;
36001;SDS011;22070;50.922;5.430;2022-12-07T02:30:13;25.40;;;14.35;;
36001;SDS011;22070;50.922;5.430;2022-12-07T02:35:33;27.80;;;15.20;;
36001;SDS011;22070;50.922;5.430;2022-12-07T02:40:53;24.90;;;14.77;;
36001;SDS011;22070;50.922;5.430;2022-12-07T02:43:31;27.75;;;15.38;;
36001;SDS011;22070;50.922;5.430;2022-12-07T02:46:07;24.88;;;14.80;;
36001;SDS011;22070;50.922;5.430;2022-12-07T02:48:37;25.52;;;14.98;;
36001;SDS011;22070;50.922;5.430;2022-12-07T02:51:04;26.85;;;14.80;;
36001;SDS011;22070;50.922;5.430;2022-12-07T03:05:05;29.75;;;15.63;;
36001;SDS011;22070;50.922;5.430;2022-12-07T03:10:28;27.73;;;16.07;;
36001;SDS011;22070;50.922;5.430;2022-12-07T03:16:09;33.58;;;16.95;;
36001;SDS011;22070;50.922;5.430;2022-12-07T03:18:41;31.05;;;16.63;;
36001;SDS011;22070;50.922;5.430;2022-12-07T03:21:27;29.85;;;16.60;;
36001;SDS011;22070;50.922;5.430;2022-12-07T03:23:59;32.17;;;16.73;;
36001;SDS011;22070;50.922;5.430;2022-12-07T03:26:32;26.95;;;16.23;;
36001;SDS011;22070;50.922;5.430;2022-12-07T03:29:02;29.02;;;16.45;;
36001;SDS011;22070;50.922;5.430;2022-12-07T03:31:33;30.25;;;17.23;;
36001;SDS011;22070;50.922;5.430;2022-12-07T03:36:40;36.85;;;19.13;;
36001;SDS011;22070;50.922;5.430;2022-12-07T03:39:16;32.13;;;18.60;;
36001;SDS011;22070;50.922;5.430;2022-12-07T03:41:51;34.00;;;19.48;;
36001;SDS011;22070;50.922;5.430;2022-12-07T03:44:19;33.10;;;18.60;;
36001;SDS011;22070;50.922;5.430;2022-12-07T03:46:51;32.63;;;18.85;;
36001;SDS011;22070;50.922;5.430;2022-12-07T03:49:25;34.97;;;19.48;;
36001;SDS011;22070;50.922;5.430;2022-12-07T03:55:00;39.35;;;18.15;;
36001;SDS011;22070;50.922;5.430;2022-12-07T03:57:36;35.40;;;18.00;;
36001;SDS011;22070;50.922;5.430;2022-12-07T04:00:04;29.27;;;17.50;;
36001;SDS011;22070;50.922;5.430;2022-12-07T04:02:32;33.38;;;17.70;;
36001;SDS011;22070;50.922;5.430;2022-12-07T04:04:58;42.90;;;18.88;;
36001;SDS011;22070;50.922;5.430;2022-12-07T04:07:24;31.73;;;18.73;;
36001;SDS011;22070;50.922;5.430;2022-12-07T04:09:50;32.28;;;18.77;;
36001;SDS011;22070;50.922;5.430;2022-12-07T04:12:16;33.20;;;18.80;;
36001;SDS011;22070;50.922;5.430;2022-12-07T04:14:41;32.08;;;17.50;;
36001;SDS011;22070;50.922;5.430;2022-12-07T04:17:08;32.78;;;18.23;;
36001;SDS011;22070;50.922;5.430;2022-12-07T04:19:34;34.80;;;18.23;;
36001;SDS011;22070;50.922;5.430;2022-12-07T04:22:02;35.20;;;18.20;;
36001;SDS011;22070;50.922;5.430;2022-12-07T04:24:29;29.65;;;17.77;;
36001;SDS011;22070;50.922;5.430;2022-12-07T04:26:55;34.63;;;18.27;;
36001;SDS011;22070;50.922;5.430;2022-12-07T04:29:21;32.92;;;19.02;;
36001;SDS011;22070;50.922;5.430;2022-12-07T04:31:47;33.85;;;18.65;;
36001;SDS011;22070;50.922;5.430;2022-12-07T04:34:14;34.25;;;18.55;;
36001;SDS011;22070;50.922;5.430;2022-12-07T04:36:40;29.80;;;18.30;;
36001;SDS011;22070;50.922;5.430;2022-12-07T04:39:07;36.88;;;19.33;;
36001;SDS011;22070;50.922;5.430;2022-12-07T04:41:33;32.55;;;17.83;;
36001;SDS011;22070;50.922;5.430;2022-12-07T04:44:00;32.05;;;18.52;;
36001;SDS011;22070;50.922;5.430;2022-12-07T04:46:27;30.85;;;17.80;;
36001;SDS011;22070;50.922;5.430;2022-12-07T04:48:54;41.60;;;18.90;;
36001;SDS011;22070;50.922;5.430;2022-12-07T04:51:21;32.88;;;18.70;;
36001;SDS011;22070;50.922;5.430;2022-12-07T04:53:48;30.80;;;19.63;;
36001;SDS011;22070;50.922;5.430;2022-12-07T04:56:14;33.10;;;18.83;;
36001;SDS011;22070;50.922;5.430;2022-12-07T04:58:41;31.52;;;19.13;;
36001;SDS011;22070;50.922;5.430;2022-12-07T05:01:07;34.60;;;19.10;;
36001;SDS011;22070;50.922;5.430;2022-12-07T05:03:33;32.72;;;19.23;;
36001;SDS011;22070;50.922;5.430;2022-12-07T05:06:00;40.85;;;19.25;;
36001;SDS011;22070;50.922;5.430;2022-12-07T05:08:26;34.83;;;18.85;;
36001;SDS011;22070;50.922;5.430;2022-12-07T05:10:51;37.92;;;19.30;;
36001;SDS011;22070;50.922;5.430;2022-12-07T05:13:17;33.47;;;18.98;;
36001;SDS011;22070;50.922;5.430;2022-12-07T05:15:42;32.83;;;19.17;;
36001;SDS011;22070;50.922;5.430;2022-12-07T05:18:09;32.20;;;17.70;;
36001;SDS011;22070;50.922;5.430;2022-12-07T05:20:37;31.38;;;17.73;;
36001;SDS011;22070;50.922;5.430;2022-12-07T05:23:03;32.05;;;17.83;;
36001;SDS011;22070;50.922;5.430;2022-12-07T05:25:29;33.22;;;17.88;;
36001;SDS011;22070;50.922;5.430;2022-12-07T05:27:55;30.42;;;16.52;;
36001;SDS011;22070;50.922;5.430;2022-12-07T05:30:21;30.38;;;16.90;;
36001;SDS011;22070;50.922;5.430;2022-12-07T05:32:50;33.22;;;17.35;;
36001;SDS011;22070;50.922;5.430;2022-12-07T05:35:17;31.33;;;16.80;;
36001;SDS011;22070;50.922;5.430;2022-12-07T05:37:43;29.75;;;17.48;;
36001;SDS011;22070;50.922;5.430;2022-12-07T05:40:09;32.22;;;17.52;;
36001;SDS011;22070;50.922;5.430;2022-12-07T05:42:36;37.05;;;18.52;;
36001;SDS011;22070;50.922;5.430;2022-12-07T05:45:02;23.45;;;12.93;;
36001;SDS011;22070;50.922;5.430;2022-12-07T05:47:28;36.95;;;19.15;;
36001;SDS011;22070;50.922;5.430;2022-12-07T05:49:54;32.35;;;18.10;;
36001;SDS011;22070;50.922;5.430;2022-12-07T05:52:20;35.42;;;19.27;;
36001;SDS011;22070;50.922;5.430;2022-12-07T05:54:45;31.40;;;19.58;;
36001;SDS011;22070;50.922;5.430;2022-12-07T05:57:11;30.15;;;18.25;;
36001;SDS011;22070;50.922;5.430;2022-12-07T05:59:37;39.78;;;20.10;;
36001;SDS011;22070;50.922;5.430;2022-12-07T06:02:07;33.17;;;18.73;;
36001;SDS011;22070;50.922;5.430;2022-12-07T06:04:36;33.75;;;19.00;;
36001;SDS011;22070;50.922;5.430;2022-12-07T06:07:04;33.72;;;19.10;;
36001;SDS011;22070;50.922;5.430;2022-12-07T06:09:30;34.90;;;20.08;;
36001;SDS011;22070;50.922;5.430;2022-12-07T06:11:58;36.40;;;18.83;;
36001;SDS011;22070;50.922;5.430;2022-12-07T06:17:08;27.53;;;16.43;;
36001;SDS011;22070;50.922;5.430;2022-12-07T06:19:35;32.53;;;18.73;;
36001;SDS011;22070;50.922;5.430;2022-12-07T06:22:01;38.77;;;19.30;;
36001;SDS011;22070;50.922;5.430;2022-12-07T06:24:29;30.52;;;18.38;;
36001;SDS011;22070;50.922;5.430;2022-12-07T06:26:55;32.33;;;18.60;;
36001;SDS011;22070;50.922;5.430;2022-12-07T06:29:21;34.25;;;19.60;;
36001;SDS011;22070;50.922;5.430;2022-12-07T06:31:47;34.30;;;18.55;;
36001;SDS011;22070;50.922;5.430;2022-12-07T06:34:13;36.67;;;20.10;;
36001;SDS011;22070;50.922;5.430;2022-12-07T06:36:41;34.92;;;19.42;;
36001;SDS011;22070;50.922;5.430;2022-12-07T06:39:07;36.87;;;19.00;;
36001;SDS011;22070;50.922;5.430;2022-12-07T06:41:34;34.05;;;19.38;;
36001;SDS011;22070;50.922;5.430;2022-12-07T06:44:04;35.55;;;19.35;;
36001;SDS011;22070;50.922;5.430;2022-12-07T06:46:31;34.10;;;19.40;;
36001;SDS011;22070;50.922;5.430;2022-12-07T06:48:56;37.45;;;20.02;;
36001;SDS011;22070;50.922;5.430;2022-12-07T06:51:22;24.45;;;13.77;;
36001;SDS011;22070;50.922;5.430;2022-12-07T06:53:48;34.05;;;18.92;;
36001;SDS011;22070;50.922;5.430;2022-12-07T06:56:14;36.17;;;19.70;;
36001;SDS011;22070;50.922;5.430;2022-12-07T06:58:40;37.90;;;19.07;;
36001;SDS011;22070;50.922;5.430;2022-12-07T07:01:13;35.03;;;18.93;;
36001;SDS011;22070;50.922;5.430;2022-12-07T07:03:40;34.33;;;19.40;;
36001;SDS011;22070;50.922;5.430;2022-12-07T07:06:06;36.22;;;19.35;;
36001;SDS011;22070;50.922;5.430;2022-12-07T07:08:33;34.00;;;18.20;;
36001;SDS011;22070;50.922;5.430;2022-12-07T07:10:59;36.55;;;18.77;;
36001;SDS011;22070;50.922;5.430;2022-12-07T07:13:26;32.85;;;18.95;;
36001;SDS011;22070;50.922;5.430;2022-12-07T07:15:52;31.30;;;18.27;;
36001;SDS011;22070;50.922;5.430;2022-12-07T07:18:18;32.67;;;18.95;;
36001;SDS011;22070;50.922;5.430;2022-12-07T07:20:43;34.83;;;19.83;;
36001;SDS011;22070;50.922;5.430;2022-12-07T07:23:09;38.47;;;21.60;;
36001;SDS011;22070;50.922;5.430;2022-12-07T07:25:35;27.15;;;14.40;;
36001;SDS011;22070;50.922;5.430;2022-12-07T07:28:01;39.72;;;19.38;;
36001;SDS011;22070;50.922;5.430;2022-12-07T07:30:26;30.17;;;18.13;;
36001;SDS011;22070;50.922;5.430;2022-12-07T07:32:59;35.78;;;17.95;;
36001;SDS011;22070;50.922;5.430;2022-12-07T07:35:25;34.47;;;19.35;;
36001;SDS011;22070;50.922;5.430;2022-12-07T07:37:52;26.88;;;16.75;;
36001;SDS011;22070;50.922;5.430;2022-12-07T07:40:18;27.77;;;16.02;;
36001;SDS011;22070;50.922;5.430;2022-12-07T07:42:43;25.00;;;15.38;;
36001;SDS011;22070;50.922;5.430;2022-12-07T07:45:11;32.63;;;16.55;;
36001;SDS011;22070;50.922;5.430;2022-12-07T07:47:37;28.83;;;14.70;;
36001;SDS011;22070;50.922;5.430;2022-12-07T07:50:03;33.13;;;15.48;;
36001;SDS011;22070;50.922;5.430;2022-12-07T07:52:29;27.67;;;15.43;;
36001;SDS011;22070;50.922;5.430;2022-12-07T07:57:21;29.00;;;15.93;;
36001;SDS011;22070;50.922;5.430;2022-12-07T07:59:47;28.30;;;15.70;;
36001;SDS011;22070;50.922;5.430;2022-12-07T08:02:13;18.10;;;10.67;;
36001;SDS011;22070;50.922;5.430;2022-12-07T08:04:40;25.08;;;13.68;;
36001;SDS011;22070;50.922;5.430;2022-12-07T08:07:06;22.00;;;13.70;;
36001;SDS011;22070;50.922;5.430;2022-12-07T08:09:31;27.10;;;14.40;;
36001;SDS011;22070;50.922;5.430;2022-12-07T08:11:57;31.88;;;16.20;;
36001;SDS011;22070;50.922;5.430;2022-12-07T08:14:23;26.02;;;14.93;;
36001;SDS011;22070;50.922;5.430;2022-12-07T08:16:49;31.90;;;14.85;;
36001;SDS011;22070;50.922;5.430;2022-12-07T08:19:15;30.05;;;14.80;;
36001;SDS011;22070;50.922;5.430;2022-12-07T08:21:41;26.08;;;15.00;;
36001;SDS011;22070;50.922;5.430;2022-12-07T08:24:06;29.42;;;15.43;;
36001;SDS011;22070;50.922;5.430;2022-12-07T08:26:32;29.13;;;15.60;;
36001;SDS011;22070;50.922;5.430;2022-12-07T08:28:58;27.58;;;16.02;;
36001;SDS011;22070;50.922;5.430;2022-12-07T08:31:24;32.97;;;17.23;;
36001;SDS011;22070;50.922;5.430;2022-12-07T08:33:52;30.17;;;16.77;;
36001;SDS011;22070;50.922;5.430;2022-12-07T08:36:18;28.80;;;17.77;;
36001;SDS011;22070;50.922;5.430;2022-12-07T08:38:44;35.67;;;20.27;;
36001;SDS011;22070;50.922;5.430;2022-12-07T08:41:10;41.28;;;19.65;;
36001;SDS011;22070;50.922;5.430;2022-12-07T08:43:37;31.52;;;18.67;;
36001;SDS011;22070;50.922;5.430;2022-12-07T08:46:07;33.75;;;18.52;;
36001;SDS011;22070;50.922;5.430;2022-12-07T08:48:46;34.25;;;18.67;;
36001;SDS011;22070;50.922;5.430;2022-12-07T08:51:18;33.53;;;18.05;;
36001;SDS011;22070;50.922;5.430;2022-12-07T08:53:45;31.48;;;19.17;;
36001;SDS011;22070;50.922;5.430;2022-12-07T08:56:11;32.70;;;18.77;;
36001;SDS011;22070;50.922;5.430;2022-12-07T08:58:37;36.53;;;18.50;;
36001;SDS011;22070;50.922;5.430;2022-12-07T09:01:03;36.28;;;18.00;;
36001;SDS011;22070;50.922;5.430;2022-12-07T09:03:29;40.08;;;20.35;;
36001;SDS011;22070;50.922;5.430;2022-12-07T09:05:55;41.15;;;19.20;;
36001;SDS011;22070;50.922;5.430;2022-12-07T09:08:22;34.08;;;17.80;;
36001;SDS011;22070;50.922;5.430;2022-12-07T09:10:53;35.03;;;18.45;;
36001;SDS011;22070;50.922;5.430;2022-12-07T09:13:18;34.53;;;18.55;;
36001;SDS011;22070;50.922;5.430;2022-12-07T09:15:44;32.57;;;18.63;;
36001;SDS011;22070;50.922;5.430;2022-12-07T09:18:09;30.70;;;17.08;;
36001;SDS011;22070;50.922;5.430;2022-12-07T09:20:35;32.40;;;17.60;;
36001;SDS011;22070;50.922;5.430;2022-12-07T09:23:01;32.72;;;18.17;;
36001;SDS011;22070;50.922;5.430;2022-12-07T09:25:26;28.67;;;17.30;;
36001;SDS011;22070;50.922;5.430;2022-12-07T09:27:56;31.47;;;17.27;;
36001;SDS011;22070;50.922;5.430;2022-12-07T09:30:22;29.38;;;17.48;;
36001;SDS011;22070;50.922;5.430;2022-12-07T09:32:48;30.85;;;17.42;;
36001;SDS011;22070;50.922;5.430;2022-12-07T09:35:14;33.42;;;18.13;;
36001;SDS011;22070;50.922;5.430;2022-12-07T09:37:39;30.83;;;17.45;;
36001;SDS011;22070;50.922;5.430;2022-12-07T09:40:05;33.90;;;17.60;;
36001;SDS011;22070;50.922;5.430;2022-12-07T09:44:57;31.63;;;17.70;;
36001;SDS011;22070;50.922;5.430;2022-12-07T09:49:49;24.17;;;13.87;;
36001;SDS011;22070;50.922;5.430;2022-12-07T09:52:17;30.73;;;14.95;;
36001;SDS011;22070;50.922;5.430;2022-12-07T09:54:45;24.75;;;14.35;;
36001;SDS011;22070;50.922;5.430;2022-12-07T09:57:13;28.27;;;13.75;;
36001;SDS011;22070;50.922;5.430;2022-12-07T09:59:39;26.50;;;13.48;;
36001;SDS011;22070;50.922;5.430;2022-12-07T10:02:52;30.42;;;16.67;;
36001;SDS011;22070;50.922;5.430;2022-12-07T10:05:24;28.00;;;12.55;;
36001;SDS011;22070;50.922;5.430;2022-12-07T10:07:57;22.85;;;11.30;;
36001;SDS011;22070;50.922;5.430;2022-12-07T10:10:32;26.20;;;11.90;;
36001;SDS011;22070;50.922;5.430;2022-12-07T10:13:01;16.80;;;10.57;;
36001;SDS011;22070;50.922;5.430;2022-12-07T10:15:43;19.02;;;10.10;;
36001;SDS011;22070;50.922;5.430;2022-12-07T10:18:37;17.60;;;9.23;;
36001;SDS011;22070;50.922;5.430;2022-12-07T10:24:03;17.40;;;8.57;;
36001;SDS011;22070;50.922;5.430;2022-12-07T10:26:52;15.18;;;8.45;;
36001;SDS011;22070;50.922;5.430;2022-12-07T10:31:59;12.85;;;7.03;;
36001;SDS011;22070;50.922;5.430;2022-12-07T10:34:30;15.50;;;7.63;;
36001;SDS011;22070;50.922;5.430;2022-12-07T10:37:18;17.27;;;7.68;;
36001;SDS011;22070;50.922;5.430;2022-12-07T10:39:46;13.27;;;6.25;;
36001;SDS011;22070;50.922;5.430;2022-12-07T10:42:17;13.60;;;6.75;;
36001;SDS011;22070;50.922;5.430;2022-12-07T10:44:45;12.80;;;6.32;;
36001;SDS011;22070;50.922;5.430;2022-12-07T10:57:50;12.50;;;5.30;;
36001;SDS011;22070;50.922;5.430;2022-12-07T11:00:21;12.65;;;6.32;;
36001;SDS011;22070;50.922;5.430;2022-12-07T11:18:49;13.32;;;6.72;;
36001;SDS011;22070;50.922;5.430;2022-12-07T11:24:09;13.88;;;6.32;;
36001;SDS011;22070;50.922;5.430;2022-12-07T11:34:23;14.95;;;6.00;;
36001;SDS011;22070;50.922;5.430;2022-12-07T11:37:17;15.50;;;6.60;;
36001;SDS011;22070;50.922;5.430;2022-12-07T11:42:31;15.40;;;6.00;;
36001;SDS011;22070;50.922;5.430;2022-12-07T11:45:16;11.57;;;6.65;;
36001;SDS011;22070;50.922;5.430;2022-12-07T11:48:01;15.90;;;6.10;;
36001;SDS011;22070;50.922;5.430;2022-12-07T11:51:06;11.73;;;5.90;;
36001;SDS011;22070;50.922;5.430;2022-12-07T11:53:38;12.02;;;5.90;;
36001;SDS011;22070;50.922;5.430;2022-12-07T11:56:09;10.07;;;6.32;;
36001;SDS011;22070;50.922;5.430;2022-12-07T12:03:48;12.88;;;6.13;;
36001;SDS011;22070;50.922;5.430;2022-12-07T12:06:16;12.00;;;5.43;;
36001;SDS011;22070;50.922;5.430;2022-12-07T12:08:43;12.52;;;5.78;;
36001;SDS011;22070;50.922;5.430;2022-12-07T12:22:17;7.75;;;3.80;;
36001;SDS011;22070;50.922;5.430;2022-12-07T12:24:47;9.63;;;3.53;;
36001;SDS011;22070;50.922;5.430;2022-12-07T12:27:23;9.38;;;3.17;;
36001;SDS011;22070;50.922;5.430;2022-12-07T12:29:56;4.32;;;2.95;;
36001;SDS011;22070;50.922;5.430;2022-12-07T12:35:22;10.05;;;3.17;;
36001;SDS011;22070;50.922;5.430;2022-12-07T12:37:48;12.65;;;3.25;;
36001;SDS011;22070;50.922;5.430;2022-12-07T12:45:37;12.20;;;5.07;;
36001;SDS011;22070;50.922;5.430;2022-12-07T12:48:02;10.05;;;3.60;;
36001;SDS011;22070;50.922;5.430;2022-12-07T12:50:46;25.98;;;12.55;;
36001;SDS011;22070;50.922;5.430;2022-12-07T12:53:23;14.63;;;7.90;;
36001;SDS011;22070;50.922;5.430;2022-12-07T12:58:29;8.32;;;3.08;;
36001;SDS011;22070;50.922;5.430;2022-12-07T13:04:01;8.98;;;3.42;;
36001;SDS011;22070;50.922;5.430;2022-12-07T13:06:39;6.40;;;2.92;;
36001;SDS011;22070;50.922;5.430;2022-12-07T13:09:15;8.02;;;3.03;;
36001;SDS011;22070;50.922;5.430;2022-12-07T13:11:48;8.77;;;2.47;;
36001;SDS011;22070;50.922;5.430;2022-12-07T13:16:59;11.48;;;3.42;;
36001;SDS011;22070;50.922;5.430;2022-12-07T13:19:59;8.95;;;3.47;;
36001;SDS011;22070;50.922;5.430;2022-12-07T13:28:02;7.03;;;1.90;;
36001;SDS011;22070;50.922;5.430;2022-12-07T13:30:43;7.30;;;2.40;;
36001;SDS011;22070;50.922;5.430;2022-12-07T13:33:16;4.80;;;1.60;;
36001;SDS011;22070;50.922;5.430;2022-12-07T13:35:43;10.25;;;3.90;;
36001;SDS011;22070;50.922;5.430;2022-12-07T13:41:17;15.60;;;4.80;;
36001;SDS011;22070;50.922;5.430;2022-12-07T13:44:01;17.05;;;3.83;;
36001;SDS011;22070;50.922;5.430;2022-12-07T13:46:51;8.70;;;2.50;;
36001;SDS011;22070;50.922;5.430;2022-12-07T13:49:33;7.97;;;3.03;;
36001;SDS011;22070;50.922;5.430;2022-12-07T13:52:45;6.40;;;2.40;;
36001;SDS011;22070;50.922;5.430;2022-12-07T13:54:57;12.63;;;4.32;;
36001;SDS011;22070;50.922;5.430;2022-12-07T13:57:24;12.98;;;4.22;;
36001;SDS011;22070;50.922;5.430;2022-12-07T13:59:51;13.18;;;3.85;;
36001;SDS011;22070;50.922;5.430;2022-12-07T14:02:28;13.02;;;5.10;;
36001;SDS011;22070;50.922;5.430;2022-12-07T14:05:14;14.02;;;4.10;;
36001;SDS011;22070;50.922;5.430;2022-12-07T14:08:03;9.68;;;2.75;;
36001;SDS011;22070;50.922;5.430;2022-12-07T14:12:57;19.45;;;8.10;;
36001;SDS011;22070;50.922;5.430;2022-12-07T14:15:24;14.48;;;6.55;;
36001;SDS011;22070;50.922;5.430;2022-12-07T14:18:00;26.00;;;12.27;;
36001;SDS011;22070;50.922;5.430;2022-12-07T14:20:35;17.40;;;7.43;;
36001;SDS011;22070;50.922;5.430;2022-12-07T14:23:06;10.82;;;3.67;;
36001;SDS011;22070;50.922;5.430;2022-12-07T14:25:51;10.43;;;2.45;;
36001;SDS011;22070;50.922;5.430;2022-12-07T14:28:28;3.45;;;1.55;;
36001;SDS011;22070;50.922;5.430;2022-12-07T14:30:59;5.35;;;1.20;;
36001;SDS011;22070;50.922;5.430;2022-12-07T14:33:25;5.68;;;1.48;;
36001;SDS011;22070;50.922;5.430;2022-12-07T14:35:51;9.98;;;1.92;;
36001;SDS011;22070;50.922;5.430;2022-12-07T14:38:20;7.20;;;2.58;;
36001;SDS011;22070;50.922;5.430;2022-12-07T14:40:46;9.43;;;2.47;;
36001;SDS011;22070;50.922;5.430;2022-12-07T14:43:14;6.28;;;2.80;;
36001;SDS011;22070;50.922;5.430;2022-12-07T14:45:41;12.10;;;3.65;;
36001;SDS011;22070;50.922;5.430;2022-12-07T14:48:10;15.10;;;5.90;;
36001;SDS011;22070;50.922;5.430;2022-12-07T14:50:38;13.77;;;3.20;;
36001;SDS011;22070;50.922;5.430;2022-12-07T14:53:16;5.82;;;2.83;;
36001;SDS011;22070;50.922;5.430;2022-12-07T14:55:43;16.45;;;4.40;;
36001;SDS011;22070;50.922;5.430;2022-12-07T14:58:15;8.38;;;4.55;;
36001;SDS011;22070;50.922;5.430;2022-12-07T15:00:43;14.73;;;6.25;;
36001;SDS011;22070;50.922;5.430;2022-12-07T15:03:09;11.68;;;5.60;;
36001;SDS011;22070;50.922;5.430;2022-12-07T15:05:35;22.05;;;6.93;;
36001;SDS011;22070;50.922;5.430;2022-12-07T15:10:30;19.67;;;6.13;;
36001;SDS011;22070;50.922;5.430;2022-12-07T15:12:58;19.83;;;8.77;;
36001;SDS011;22070;50.922;5.430;2022-12-07T15:15:44;21.63;;;9.90;;
36001;SDS011;22070;50.922;5.430;2022-12-07T15:18:11;19.85;;;7.65;;
36001;SDS011;22070;50.922;5.430;2022-12-07T15:20:37;19.38;;;7.47;;
36001;SDS011;22070;50.922;5.430;2022-12-07T15:23:04;16.58;;;7.30;;
36001;SDS011;22070;50.922;5.430;2022-12-07T15:25:29;13.48;;;6.32;;
36001;SDS011;22070;50.922;5.430;2022-12-07T15:27:55;17.77;;;7.00;;
36001;SDS011;22070;50.922;5.430;2022-12-07T15:30:21;20.65;;;7.07;;
36001;SDS011;22070;50.922;5.430;2022-12-07T15:32:50;9.82;;;5.85;;
36001;SDS011;22070;50.922;5.430;2022-12-07T15:35:16;12.35;;;6.18;;
36001;SDS011;22070;50.922;5.430;2022-12-07T15:37:42;9.18;;;4.88;;
36001;SDS011;22070;50.922;5.430;2022-12-07T15:40:08;12.02;;;5.45;;
36001;SDS011;22070;50.922;5.430;2022-12-07T15:42:35;13.93;;;7.57;;
36001;SDS011;22070;50.922;5.430;2022-12-07T15:45:01;15.90;;;7.60;;
36001;SDS011;22070;50.922;5.430;2022-12-07T15:47:31;15.35;;;7.13;;
36001;SDS011;22070;50.922;5.430;2022-12-07T15:49:58;17.45;;;7.38;;
36001;SDS011;22070;50.922;5.430;2022-12-07T15:52:24;14.15;;;6.70;;
36001;SDS011;22070;50.922;5.430;2022-12-07T15:54:50;11.27;;;5.53;;
36001;SDS011;22070;50.922;5.430;2022-12-07T15:57:15;12.38;;;5.05;;
36001;SDS011;22070;50.922;5.430;2022-12-07T15:59:41;11.52;;;5.53;;
36001;SDS011;22070;50.922;5.430;2022-12-07T16:02:08;11.50;;;6.45;;
36001;SDS011;22070;50.922;5.430;2022-12-07T16:04:35;11.35;;;6.35;;
36001;SDS011;22070;50.922;5.430;2022-12-07T16:07:01;17.55;;;7.55;;
36001;SDS011;22070;50.922;5.430;2022-12-07T16:09:27;13.65;;;5.68;;
36001;SDS011;22070;50.922;5.430;2022-12-07T16:11:53;15.98;;;8.38;;
36001;SDS011;22070;50.922;5.430;2022-12-07T16:14:20;11.00;;;6.32;;
36001;SDS011;22070;50.922;5.430;2022-12-07T16:16:46;13.97;;;7.83;;
36001;SDS011;22070;50.922;5.430;2022-12-07T16:19:12;12.35;;;6.00;;
36001;SDS011;22070;50.922;5.430;2022-12-07T16:21:38;15.82;;;6.75;;
36001;SDS011;22070;50.922;5.430;2022-12-07T16:24:04;10.70;;;5.97;;
36001;SDS011;22070;50.922;5.430;2022-12-07T16:26:30;9.67;;;4.70;;
36001;SDS011;22070;50.922;5.430;2022-12-07T16:28:56;10.00;;;5.23;;
36001;SDS011;22070;50.922;5.430;2022-12-07T16:31:23;6.53;;;3.87;;
36001;SDS011;22070;50.922;5.430;2022-12-07T16:33:50;8.07;;;4.20;;
36001;SDS011;22070;50.922;5.430;2022-12-07T16:36:18;8.02;;;4.00;;
36001;SDS011;22070;50.922;5.430;2022-12-07T16:38:46;10.65;;;4.80;;
36001;SDS011;22070;50.922;5.430;2022-12-07T16:41:13;11.43;;;5.63;;
36001;SDS011;22070;50.922;5.430;2022-12-07T16:43:39;9.53;;;5.27;;
36001;SDS011;22070;50.922;5.430;2022-12-07T16:46:05;9.10;;;5.30;;
36001;SDS011;22070;50.922;5.430;2022-12-07T16:48:31;9.13;;;5.47;;
36001;SDS011;22070;50.922;5.430;2022-12-07T16:50:59;6.32;;;3.58;;
36001;SDS011;22070;50.922;5.430;2022-12-07T16:53:28;6.47;;;3.92;;
36001;SDS011;22070;50.922;5.430;2022-12-07T16:55:54;8.18;;;4.03;;
36001;SDS011;22070;50.922;5.430;2022-12-07T16:58:19;5.85;;;3.92;;
36001;SDS011;22070;50.922;5.430;2022-12-07T17:00:45;10.85;;;6.60;;
36001;SDS011;22070;50.922;5.430;2022-12-07T17:03:11;10.55;;;6.50;;
36001;SDS011;22070;50.922;5.430;2022-12-07T17:05:38;6.22;;;3.75;;